Time;durP1;ratioP1;P1;durP2;ratioP2;P2;SDS_P1;SDS_P2;PMS_P1;PMS_P2;Temp;Humidity;BMP_temperature;BMP_pressure;BME280_temperature;BME280_humidity;BME280_pressure;Samples;Min_cycle;Max_cycle;Signal;HPM_P1;HPM_P2
2023/08/19 00:00:58;;;;;;;12.50;8.97;;;;;;;21.80;82.04;100459.16;4231472;28;20649;-73
2023/08/19 00:03:26;;;;;;;14.83;8.70;;;;;;;21.82;81.97;100462.56;4224416;28;20236;-73
2023/08/19 00:05:53;;;;;;;15.03;9.67;;;;;;;21.79;81.93;100458.31;4221532;28;20294;-73
2023/08/19 00:08:19;;;;;;;17.37;9.50;;;;;;;21.81;82.27;100475.47;4230615;28;20428;-71
2023/08/19 00:10:46;;;;;;;13.43;8.33;;;;;;;21.87;81.56;100473.75;4219785;28;20977;-70
2023/08/19 00:13:12;;;;;;;18.57;9.63;;;;;;;21.95;82.13;100472.63;4219043;28;22897;-71
2023/08/19 00:15:39;;;;;;;10.97;8.80;;;;;;;21.91;82.01;100474.97;4231924;28;20843;-70
2023/08/19 00:18:06;;;;;;;11.73;8.73;;;;;;;21.91;81.62;100474.16;4226893;28;20258;-73
2023/08/19 00:20:33;;;;;;;12.90;8.73;;;;;;;21.64;83.11;100480.66;4218002;28;20278;-73
2023/08/19 00:23:00;;;;;;;12.60;9.40;;;;;;;21.38;84.60;100476.09;4219617;28;20232;-70
2023/08/19 00:25:27;;;;;;;16.80;9.73;;;;;;;21.34;84.57;100472.06;4223357;28;20234;-70
2023/08/19 00:27:54;;;;;;;18.10;10.00;;;;;;;21.48;83.71;100473.72;4224973;28;20231;-71
2023/08/19 00:30:21;;;;;;;14.77;9.10;;;;;;;21.58;83.57;100478.78;4212282;28;20713;-71
2023/08/19 00:32:47;;;;;;;12.20;9.60;;;;;;;21.62;83.41;100476.44;4228095;28;25782;-71
2023/08/19 00:35:14;;;;;;;12.90;9.33;;;;;;;21.52;83.93;100471.38;4222376;28;20266;-71
2023/08/19 00:37:41;;;;;;;12.97;9.33;;;;;;;21.58;83.89;100472.41;4225143;28;20293;-72
2023/08/19 00:40:13;;;;;;;12.80;9.60;;;;;;;21.46;84.14;100462.06;4227461;28;20316;-71
2023/08/19 00:42:40;;;;;;;12.17;9.53;;;;;;;21.53;83.99;100471.13;4217331;28;20304;-72
2023/08/19 00:45:07;;;;;;;12.63;9.77;;;;;;;21.49;83.99;100469.03;4224434;28;21163;-71
2023/08/19 00:47:35;;;;;;;15.87;9.20;;;;;;;21.59;83.94;100468.59;4226393;28;20236;-70
2023/08/19 00:50:04;;;;;;;17.20;9.73;;;;;;;21.41;84.41;100463.78;4226992;28;20238;-71
2023/08/19 00:52:31;;;;;;;14.53;9.30;;;;;;;21.42;83.97;100458.03;4202572;28;20244;-73
2023/08/19 00:54:57;;;;;;;20.67;10.60;;;;;;;21.24;84.88;100457.94;4210373;28;20306;-71
2023/08/19 00:57:24;;;;;;;14.83;10.20;;;;;;;21.04;86.58;100454.19;4235347;28;23217;-72
2023/08/19 00:59:51;;;;;;;12.77;9.53;;;;;;;21.01;87.07;100451.00;4234210;28;20235;-73
2023/08/19 01:02:18;;;;;;;14.03;10.73;;;;;;;20.94;87.29;100448.28;4217354;28;20314;-70
2023/08/19 01:04:44;;;;;;;16.60;10.60;;;;;;;20.97;87.15;100450.59;4219527;28;20228;-69
2023/08/19 01:07:28;;;;;;;13.87;10.00;;;;;;;21.01;86.72;100456.53;4228188;28;21621;-67
2023/08/19 01:10:07;;;;;;;10.93;9.47;;;;;;;21.04;86.17;100450.56;4222939;28;20300;-67
2023/08/19 01:12:49;;;;;;;12.87;10.50;;;;;;;20.96;86.87;100461.84;4219398;28;20617;-67
2023/08/19 01:15:19;;;;;;;13.67;9.50;;;;;;;21.01;86.25;100453.78;4221679;28;20243;-67
2023/08/19 01:17:48;;;;;;;11.80;9.13;;;;;;;21.03;86.19;100459.91;4241539;28;20282;-65
2023/08/19 01:20:15;;;;;;;11.70;9.60;;;;;;;21.09;86.15;100459.03;4217184;28;22942;-68
2023/08/19 01:22:55;;;;;;;12.70;9.57;;;;;;;21.07;85.90;100466.66;4223506;28;20400;-68
2023/08/19 01:25:22;;;;;;;15.90;10.67;;;;;;;20.96;86.27;100462.66;4226304;28;20526;-66
2023/08/19 01:27:49;;;;;;;11.97;9.20;;;;;;;20.88;87.12;100465.66;4226001;28;20243;-66
2023/08/19 01:30:16;;;;;;;14.17;10.33;;;;;;;20.85;86.88;100464.19;4226317;28;22341;-67
2023/08/19 01:32:43;;;;;;;14.33;10.40;;;;;;;20.78;87.41;100466.09;4215863;28;20300;-68
2023/08/19 01:35:13;;;;;;;13.87;10.60;;;;;;;20.77;87.64;100467.16;4225987;28;20390;-68
2023/08/19 01:37:46;;;;;;;12.17;10.00;;;;;;;20.84;87.34;100472.66;4228080;28;20356;-66
2023/08/19 01:40:13;;;;;;;12.37;9.40;;;;;;;20.80;87.74;100472.25;4235055;28;20241;-67
2023/08/19 01:42:41;;;;;;;15.70;10.30;;;;;;;20.73;87.89;100472.25;4224095;28;22054;-66
2023/08/19 01:45:08;;;;;;;18.63;12.00;;;;;;;20.65;87.88;100472.44;4206312;28;21710;-68
2023/08/19 01:47:39;;;;;;;13.47;11.07;;;;;;;20.52;87.97;100477.94;4219882;28;22866;-68
2023/08/19 01:50:06;;;;;;;18.67;11.43;;;;;;;20.46;88.40;100482.38;4228944;28;20347;-66
2023/08/19 01:52:33;;;;;;;15.73;12.17;;;;;;;20.39;88.57;100468.63;4223623;28;21622;-68
2023/08/19 01:55:01;;;;;;;21.87;11.87;;;;;;;20.48;88.10;100468.41;4218310;28;20280;-68
2023/08/19 01:57:28;;;;;;;20.50;11.77;;;;;;;20.45;88.34;100472.44;4221413;28;21454;-67
2023/08/19 01:59:55;;;;;;;15.17;11.47;;;;;;;20.48;88.02;100469.28;4227769;28;20272;-68
2023/08/19 02:02:23;;;;;;;17.23;11.20;;;;;;;20.51;87.88;100468.84;4215638;28;21762;-71
2023/08/19 02:04:49;;;;;;;17.10;12.33;;;;;;;20.52;88.00;100472.44;4220429;28;22819;-69
2023/08/19 02:07:16;;;;;;;14.47;11.10;;;;;;;20.48;88.31;100471.16;4226875;28;20298;-68
2023/08/19 02:09:43;;;;;;;16.10;10.97;;;;;;;20.58;87.95;100468.84;4222635;28;20260;-69
2023/08/19 02:12:10;;;;;;;19.67;12.07;;;;;;;20.47;88.38;100461.25;4224742;28;22207;-66
2023/08/19 02:14:37;;;;;;;17.03;12.67;;;;;;;20.38;88.67;100461.47;4234237;28;20296;-67
2023/08/19 02:17:03;;;;;;;20.97;13.10;;;;;;;20.40;88.58;100455.75;4227123;28;20277;-66
2023/08/19 02:19:30;;;;;;;18.30;12.77;;;;;;;20.39;89.00;100462.28;4222860;28;20239;-69
2023/08/19 02:21:56;;;;;;;19.03;12.90;;;;;;;20.32;89.56;100451.28;4217797;28;21392;-67
2023/08/19 02:24:23;;;;;;;15.43;12.63;;;;;;;20.22;90.16;100454.47;4221399;28;21084;-67
2023/08/19 02:26:50;;;;;;;18.43;12.93;;;;;;;20.22;90.31;100448.97;4222077;28;21095;-67
2023/08/19 02:29:16;;;;;;;16.77;11.47;;;;;;;20.31;89.92;100443.25;4220479;28;25467;-67
2023/08/19 02:31:43;;;;;;;16.67;12.37;;;;;;;20.28;90.13;100444.53;4201858;28;20714;-68
2023/08/19 02:34:10;;;;;;;19.87;12.57;;;;;;;20.35;89.55;100455.53;4219569;28;20257;-66
2023/08/19 02:36:36;;;;;;;16.17;12.20;;;;;;;20.40;89.57;100458.50;4238216;28;20237;-67
2023/08/19 02:39:03;;;;;;;18.93;12.00;;;;;;;20.48;89.44;100461.03;4228879;28;22332;-67
2023/08/19 02:41:29;;;;;;;18.90;12.57;;;;;;;20.49;89.34;100456.34;4208250;28;21161;-68
2023/08/19 02:43:56;;;;;;;19.03;12.87;;;;;;;20.51;89.24;100449.59;4219496;28;20245;-67
2023/08/19 02:46:23;;;;;;;19.03;13.27;;;;;;;20.49;89.45;100448.09;4236976;28;20268;-67
2023/08/19 02:48:49;;;;;;;23.27;13.33;;;;;;;20.43;89.56;100447.91;4231521;28;20331;-70
2023/08/19 02:51:16;;;;;;;17.97;13.23;;;;;;;20.32;90.10;100444.94;4226102;28;20465;-68
2023/08/19 02:53:43;;;;;;;19.23;13.60;;;;;;;20.21;90.76;100439.03;4238150;28;20627;-67
2023/08/19 02:56:09;;;;;;;23.47;15.17;;;;;;;20.13;91.73;100430.97;4238441;28;20313;-69
2023/08/19 02:58:36;;;;;;;20.47;13.30;;;;;;;20.11;91.67;100433.13;4227142;28;20240;-66
2023/08/19 03:01:03;;;;;;;19.60;13.97;;;;;;;20.16;91.23;100433.31;4227112;28;20231;-67
2023/08/19 03:03:29;;;;;;;21.20;13.57;;;;;;;20.14;91.41;100432.69;4233961;28;20275;-67
2023/08/19 03:06:00;;;;;;;17.50;13.50;;;;;;;20.14;91.42;100435.44;4231852;28;20246;-68
2023/08/19 03:08:27;;;;;;;17.70;12.63;;;;;;;20.26;90.83;100435.63;4222802;28;22522;-68
2023/08/19 03:10:53;;;;;;;19.33;13.23;;;;;;;20.26;90.76;100443.88;4216846;28;20223;-70
2023/08/19 03:13:20;;;;;;;20.50;13.33;;;;;;;20.26;90.57;100443.88;4234896;28;20227;-68
2023/08/19 03:15:46;;;;;;;22.83;13.07;;;;;;;20.09;91.42;100436.06;4228513;28;23584;-66
2023/08/19 03:18:14;;;;;;;19.30;13.40;;;;;;;20.05;91.59;100439.47;4225918;28;20287;-66
2023/08/19 03:20:42;;;;;;;17.63;12.47;;;;;;;20.09;91.36;100449.78;4232240;28;20231;-69
2023/08/19 03:23:08;;;;;;;17.90;13.37;;;;;;;20.16;90.91;100457.22;4229101;28;20232;-66
2023/08/19 03:25:35;;;;;;;14.90;11.90;;;;;;;20.15;90.89;100461.84;4234701;28;20269;-69
2023/08/19 03:28:02;;;;;;;20.07;13.60;;;;;;;20.22;90.46;100457.22;4238328;28;20239;-67
2023/08/19 03:30:28;;;;;;;20.73;14.00;;;;;;;20.08;91.26;100458.25;4220083;28;20303;-67
2023/08/19 03:32:55;;;;;;;17.70;14.43;;;;;;;20.00;91.96;100456.56;4228240;28;20232;-68
2023/08/19 03:35:22;;;;;;;20.20;14.27;;;;;;;19.99;91.90;100463.13;4227788;28;22138;-67
2023/08/19 03:37:49;;;;;;;18.67;13.73;;;;;;;20.01;91.94;100462.91;4241901;28;20271;-66
2023/08/19 03:40:15;;;;;;;19.20;13.60;;;;;;;20.03;91.46;100461.63;4229909;28;21735;-68
2023/08/19 03:42:42;;;;;;;17.27;13.60;;;;;;;20.03;91.86;100458.88;4231333;28;20234;-65
2023/08/19 03:45:08;;;;;;;19.13;12.73;;;;;;;20.11;91.40;100460.59;4229264;28;20421;-67
2023/08/19 03:47:35;;;;;;;15.83;13.10;;;;;;;20.24;90.52;100465.25;4227468;28;20240;-67
2023/08/19 03:50:02;;;;;;;18.67;12.67;;;;;;;20.29;89.94;100459.09;4222636;28;20617;-68
2023/08/19 03:52:28;;;;;;;22.90;13.13;;;;;;;20.28;90.17;100461.03;4232640;28;24058;-66
2023/08/19 03:54:55;;;;;;;17.20;12.57;;;;;;;20.31;90.33;100468.84;4231709;28;20858;-70
2023/08/19 03:57:22;;;;;;;15.83;12.20;;;;;;;20.29;90.32;100464.59;4239209;28;20273;-68
2023/08/19 03:59:50;;;;;;;18.23;12.90;;;;;;;20.21;90.48;100472.00;4227809;28;20240;-70
2023/08/19 04:02:16;;;;;;;17.67;12.17;;;;;;;20.30;90.02;100469.06;4238883;28;20224;-66
2023/08/19 04:05:01;;;;;;;17.37;12.87;;;;;;;20.27;90.13;100462.06;4226643;28;20351;-68
2023/08/19 04:07:28;;;;;;;19.17;13.53;;;;;;;20.32;89.83;100473.28;4228391;28;20235;-68
2023/08/19 04:09:55;;;;;;;17.77;12.37;;;;;;;20.38;89.24;100463.34;4212321;28;24311;-67
2023/08/19 04:12:22;;;;;;;19.07;11.67;;;;;;;20.44;88.88;100481.75;4237081;28;21306;-72
2023/08/19 04:14:49;;;;;;;13.77;11.10;;;;;;;20.41;89.28;100477.50;4241376;28;20321;-67
2023/08/19 04:17:16;;;;;;;19.67;13.03;;;;;;;20.36;88.99;100471.81;4227142;28;21401;-67
2023/08/19 04:19:45;;;;;;;15.70;12.60;;;;;;;20.38;88.68;100479.84;4243595;28;21539;-67
2023/08/19 04:22:14;;;;;;;21.90;12.17;;;;;;;20.19;89.67;100467.78;4231067;28;20873;-71
2023/08/19 04:24:40;;;;;;;17.63;12.97;;;;;;;20.32;89.02;100469.69;4297051;28;20288;-68
2023/08/19 04:27:07;;;;;;;20.03;12.17;;;;;;;20.32;88.86;100467.78;4247181;28;22243;-67
2023/08/19 04:29:35;;;;;;;20.07;11.77;;;;;;;20.45;88.04;100468.84;4276155;28;21741;-69
2023/08/19 04:32:03;;;;;;;17.50;12.20;;;;;;;20.47;87.73;100475.00;4237097;28;22388;-69
2023/08/19 04:34:30;;;;;;;16.60;12.37;;;;;;;20.31;88.79;100476.25;4272175;28;21452;-68
2023/08/19 04:36:57;;;;;;;20.93;12.10;;;;;;;20.31;88.74;100471.59;4269674;28;20230;-67
2023/08/19 04:39:24;;;;;;;16.73;12.30;;;;;;;20.35;88.38;100469.28;4252834;28;20235;-67
2023/08/19 04:41:51;;;;;;;17.70;12.87;;;;;;;20.36;88.85;100469.06;4261004;28;23009;-69
2023/08/19 04:44:17;;;;;;;19.80;13.57;;;;;;;20.36;89.13;100479.19;4237373;28;21088;-67
2023/08/19 04:46:44;;;;;;;23.67;13.53;;;;;;;20.47;88.13;100484.06;4231366;28;21109;-69
2023/08/19 04:49:11;;;;;;;15.73;11.47;;;;;;;20.54;87.91;100484.91;4212865;28;21835;-68
2023/08/19 04:51:38;;;;;;;15.57;12.17;;;;;;;20.49;88.42;100492.97;4216262;28;24616;-69
2023/08/19 04:54:05;;;;;;;23.13;13.57;;;;;;;20.60;88.18;100494.22;4221114;28;21456;-65
2023/08/19 04:56:31;;;;;;;17.17;12.57;;;;;;;20.73;86.91;100491.50;4224471;28;24994;-46
2023/08/19 04:59:00;;;;;;;17.17;12.57;;;;;;;20.74;86.91;100490.44;4212194;28;25403;-54
2023/08/19 05:01:27;;;;;;;17.60;13.00;;;;;;;20.83;86.75;100495.72;4218924;28;22965;-73
2023/08/19 05:03:54;;;;;;;16.60;11.77;;;;;;;20.94;86.10;100502.47;4224892;28;20244;-68
2023/08/19 05:06:21;;;;;;;17.80;12.27;;;;;;;21.03;86.05;100504.78;4218606;28;20942;-68
2023/08/19 05:08:48;;;;;;;20.00;12.40;;;;;;;21.15;85.04;100504.13;4215032;28;21833;-73
2023/08/19 05:11:15;;;;;;;18.77;11.80;;;;;;;21.26;84.24;100497.09;4221934;28;20737;-67
2023/08/19 05:13:42;;;;;;;17.53;11.33;;;;;;;21.32;83.69;100499.81;4211765;28;20237;-68
2023/08/19 05:16:09;;;;;;;21.17;11.87;;;;;;;21.24;84.28;100505.56;4213160;28;20447;-70
2023/08/19 05:18:39;;;;;;;18.73;12.20;;;;;;;21.29;83.76;100503.03;4228701;28;20504;-72
2023/08/19 05:21:06;;;;;;;16.87;11.33;;;;;;;21.35;83.85;100506.78;4220053;28;20304;-70
2023/08/19 05:23:32;;;;;;;18.53;10.83;;;;;;;21.48;83.34;100498.50;4208003;28;20234;-72
2023/08/19 05:25:59;;;;;;;16.13;11.63;;;;;;;21.64;83.21;100504.63;4206798;28;21204;-72
2023/08/19 05:28:25;;;;;;;15.83;10.83;;;;;;;21.66;83.01;100510.72;4230148;28;20247;-72
2023/08/19 05:30:52;;;;;;;16.10;10.90;;;;;;;21.78;82.84;100511.75;4248743;28;20687;-71
2023/08/19 05:33:19;;;;;;;17.83;10.17;;;;;;;22.09;81.60;100511.97;4256280;28;20430;-71
2023/08/19 05:35:46;;;;;;;14.80;9.80;;;;;;;21.87;82.06;100505.94;4265498;28;20317;-70
2023/08/19 05:38:12;;;;;;;15.47;9.77;;;;;;;21.89;81.88;100512.97;4238589;28;20230;-68
2023/08/19 05:40:39;;;;;;;14.57;9.63;;;;;;;21.84;82.43;100510.84;4244481;28;21239;-70
2023/08/19 05:43:05;;;;;;;17.30;9.37;;;;;;;21.87;82.34;100519.72;4265527;28;22135;-70
2023/08/19 05:45:33;;;;;;;18.30;9.50;;;;;;;22.01;81.91;100518.63;4231210;28;20236;-69
2023/08/19 05:48:00;;;;;;;19.37;9.87;;;;;;;22.24;80.39;100515.28;4219236;28;20288;-69
2023/08/19 05:50:27;;;;;;;16.97;9.40;;;;;;;22.45;79.34;100516.84;4237577;28;21616;-70
2023/08/19 05:52:54;;;;;;;14.13;8.33;;;;;;;22.62;79.07;100514.38;4241853;28;21211;-70
2023/08/19 05:55:20;;;;;;;12.17;8.23;;;;;;;22.65;77.84;100520.50;4231962;28;20241;-67
2023/08/19 05:57:47;;;;;;;15.83;8.30;;;;;;;22.82;77.41;100518.84;4260298;28;20309;-69
2023/08/19 06:00:14;;;;;;;12.93;8.10;;;;;;;22.78;76.91;100512.09;4232799;28;20280;-69
2023/08/19 06:02:41;;;;;;;10.33;7.80;;;;;;;23.09;76.17;100511.16;4241164;28;20310;-72
2023/08/19 06:05:08;;;;;;;17.30;8.70;;;;;;;23.10;75.35;100520.28;4294985;28;20235;-70
2023/08/19 06:07:37;;;;;;;12.47;8.07;;;;;;;23.22;74.59;100514.88;4351458;28;26284;-71
2023/08/19 06:10:04;;;;;;;11.57;7.23;;;;;;;23.44;73.58;100522.72;4323484;28;20302;-75
2023/08/19 06:12:31;;;;;;;13.03;6.80;;;;;;;23.61;72.21;100517.38;4295408;28;20240;-70
2023/08/19 06:14:57;;;;;;;15.33;7.73;;;;;;;23.82;71.54;100511.34;4309820;28;23624;-67
2023/08/19 06:17:24;;;;;;;13.00;7.97;;;;;;;23.96;71.22;100513.97;4258384;28;20242;-72
2023/08/19 06:19:51;;;;;;;14.90;7.43;;;;;;;24.44;69.52;100515.78;4273368;28;20621;-70
2023/08/19 06:22:18;;;;;;;12.87;6.87;;;;;;;25.29;65.92;100521.13;4295837;28;20231;-70
2023/08/19 06:24:45;;;;;;;12.07;6.90;;;;;;;26.21;62.50;100513.84;4282217;28;20406;-68
2023/08/19 06:27:11;;;;;;;13.60;6.85;;;;;;;26.04;62.27;100512.94;4231730;28;21727;-70
2023/08/19 06:29:39;;;;;;;9.15;6.82;;;;;;;25.77;63.33;100514.38;4240129;28;21170;-70
2023/08/19 06:32:06;;;;;;;12.20;7.33;;;;;;;25.41;64.34;100512.81;4255053;28;20305;-71
2023/08/19 06:34:33;;;;;;;12.33;7.47;;;;;;;25.18;65.03;100510.88;4236127;28;20231;-71
2023/08/19 06:37:03;;;;;;;13.90;7.33;;;;;;;24.75;66.48;100508.28;4221066;28;20302;-70
2023/08/19 06:39:33;;;;;;;13.17;8.17;;;;;;;24.56;66.59;100512.19;4235133;28;20280;-71
2023/08/19 06:42:02;;;;;;;13.63;8.03;;;;;;;25.01;65.13;100506.09;4233801;28;20258;-73
2023/08/19 06:44:31;;;;;;;15.03;8.33;;;;;;;25.59;63.29;100511.81;4284959;28;20238;-72
2023/08/19 06:47:00;;;;;;;12.37;7.70;;;;;;;27.08;58.32;100499.69;4239376;28;20308;-72
2023/08/19 06:49:27;;;;;;;12.70;6.50;;;;;;;28.46;53.97;100504.34;4242068;28;20227;-70
2023/08/19 06:51:54;;;;;;;11.47;6.33;;;;;;;29.21;52.28;100504.34;4241685;28;20227;-71
2023/08/19 06:54:21;;;;;;;12.48;7.32;;;;;;;29.31;51.09;100509.16;4249860;28;20242;-71
2023/08/19 06:57:10;;;;;;;12.68;7.00;;;;;;;29.57;50.93;100506.47;4243267;28;20235;-69
2023/08/19 06:59:38;;;;;;;11.02;6.93;;;;;;;30.65;47.23;100492.69;4263674;28;20232;-70
2023/08/19 07:02:06;;;;;;;12.50;6.53;;;;;;;31.08;46.66;100497.94;4250155;28;22103;-71
2023/08/19 07:04:35;;;;;;;23.30;6.70;;;;;;;31.89;44.89;100489.50;4245648;28;20238;-70
2023/08/19 07:07:04;;;;;;;14.95;6.70;;;;;;;30.83;47.07;100490.44;4232133;28;20239;-72
2023/08/19 07:09:31;;;;;;;11.63;6.85;;;;;;;31.69;45.07;100495.22;4226032;28;20235;-69
2023/08/19 07:11:58;;;;;;;11.45;6.45;;;;;;;32.72;42.70;100494.47;4237898;28;20600;-73
2023/08/19 07:14:26;;;;;;;9.77;5.90;;;;;;;33.59;41.16;100492.69;4230862;28;20284;-72
2023/08/19 07:16:55;;;;;;;12.55;6.63;;;;;;;33.86;40.27;100496.00;4235843;28;20693;-71
2023/08/19 07:19:26;;;;;;;13.98;6.45;;;;;;;33.94;40.05;100496.13;4224571;28;22029;-72
2023/08/19 07:21:54;;;;;;;13.57;6.72;;;;;;;34.19;39.73;100505.31;4249357;28;21422;-73
2023/08/19 07:24:21;;;;;;;10.00;6.40;;;;;;;35.34;37.91;100502.97;4239725;28;20234;-72
2023/08/19 07:26:48;;;;;;;10.23;6.50;;;;;;;35.25;37.81;100499.22;4222531;28;20231;-73
2023/08/19 07:29:15;;;;;;;17.02;7.03;;;;;;;35.97;36.67;100503.34;4235106;28;20986;-72
2023/08/19 07:31:42;;;;;;;12.60;6.78;;;;;;;35.12;37.18;100519.75;4243644;28;20227;-71
2023/08/19 07:34:09;;;;;;;12.70;6.70;;;;;;;34.04;39.15;100516.78;4247350;28;20267;-74
2023/08/19 07:36:36;;;;;;;17.38;6.45;;;;;;;34.05;39.16;100522.09;4243252;28;22193;-70
2023/08/19 07:39:04;;;;;;;9.45;5.82;;;;;;;35.00;38.37;100520.28;4247099;28;20227;-69
2023/08/19 07:41:30;;;;;;;15.40;6.43;;;;;;;36.39;35.55;100513.59;4232730;28;20240;-71
2023/08/19 07:43:57;;;;;;;11.02;6.18;;;;;;;37.44;33.60;100524.69;4224918;28;20280;-72
2023/08/19 07:46:25;;;;;;;10.30;5.68;;;;;;;37.40;33.79;100527.34;4217598;28;20313;-73
2023/08/19 07:48:52;;;;;;;16.63;7.18;;;;;;;35.07;37.20;100523.50;4237034;28;20229;-71
2023/08/19 07:51:19;;;;;;;11.25;6.50;;;;;;;36.01;36.02;100523.28;4216069;28;22914;-70
2023/08/19 07:53:46;;;;;;;11.15;6.15;;;;;;;36.76;34.79;100523.69;4219320;28;21279;-70
2023/08/19 07:56:12;;;;;;;11.40;6.10;;;;;;;37.87;32.97;100519.16;4220329;28;23130;-70
2023/08/19 07:58:39;;;;;;;16.02;6.25;;;;;;;37.61;34.03;100521.06;4223411;28;20232;-70
2023/08/19 08:01:06;;;;;;;11.48;6.57;;;;;;;36.32;36.12;100520.53;4223938;28;21325;-64
2023/08/19 08:03:33;;;;;;;10.60;6.38;;;;;;;35.02;38.58;100516.00;4253868;28;20556;-68
2023/08/19 08:06:02;;;;;;;11.80;6.40;;;;;;;35.12;38.04;100509.34;4291277;28;20388;-70
2023/08/19 08:08:28;;;;;;;11.38;6.30;;;;;;;34.43;39.69;100516.47;4292377;28;20579;-72
2023/08/19 08:10:55;;;;;;;12.13;6.40;;;;;;;34.45;39.94;100513.34;4274996;28;20705;-69
2023/08/19 08:13:22;;;;;;;16.33;7.40;;;;;;;33.96;40.24;100510.72;4272512;28;20248;-72
2023/08/19 08:15:49;;;;;;;11.45;6.10;;;;;;;33.98;40.80;100518.84;4310747;28;20236;-72
2023/08/19 08:18:16;;;;;;;13.05;7.30;;;;;;;33.85;41.09;100512.00;4302101;28;21650;-69
2023/08/19 08:20:44;;;;;;;12.93;6.47;;;;;;;33.95;40.49;100509.03;4272034;28;20434;-72
2023/08/19 08:23:11;;;;;;;15.00;6.88;;;;;;;34.16;40.52;100516.34;4271758;28;20239;-73
2023/08/19 08:25:38;;;;;;;10.02;6.35;;;;;;;33.41;42.24;100501.91;4236186;28;20239;-72
2023/08/19 08:28:06;;;;;;;11.52;6.65;;;;;;;34.01;40.72;100512.63;4268913;28;20310;-68
2023/08/19 08:30:33;;;;;;;15.73;7.05;;;;;;;33.68;41.76;100508.84;4255122;28;20473;-71
2023/08/19 08:33:01;;;;;;;16.38;6.65;;;;;;;33.58;41.87;100507.84;4230151;28;20414;-72
2023/08/19 08:35:31;;;;;;;13.00;6.60;;;;;;;33.48;41.38;100508.81;4238784;28;20605;-71
2023/08/19 08:37:57;;;;;;;14.32;6.85;;;;;;;33.31;41.93;100509.28;4237740;28;20339;-70
2023/08/19 08:40:24;;;;;;;14.73;7.25;;;;;;;31.96;45.04;100505.16;4245189;28;20233;-72
2023/08/19 08:42:52;;;;;;;14.30;8.07;;;;;;;31.53;46.09;100511.22;4246693;28;20614;-71
2023/08/19 08:45:20;;;;;;;15.75;7.53;;;;;;;32.21;45.00;100512.53;4233726;28;20240;-72
2023/08/19 08:47:46;;;;;;;12.90;7.85;;;;;;;32.46;44.88;100517.13;4244465;28;20224;-72
2023/08/19 08:50:13;;;;;;;12.07;7.55;;;;;;;32.05;46.13;100515.44;4252831;28;20236;-73
2023/08/19 08:52:40;;;;;;;13.48;6.75;;;;;;;32.54;44.73;100516.50;4241876;28;20682;-70
2023/08/19 08:55:09;;;;;;;11.23;7.47;;;;;;;32.28;45.25;100515.88;4219331;28;22037;-72
2023/08/19 08:57:36;;;;;;;14.38;7.40;;;;;;;32.42;44.05;100512.41;4234077;28;20245;-68
2023/08/19 09:00:03;;;;;;;14.13;7.78;;;;;;;32.78;43.39;100521.34;4222891;28;26443;-72
2023/08/19 09:02:31;;;;;;;16.48;8.50;;;;;;;32.22;45.35;100525.44;4234860;28;20227;-71
2023/08/19 09:04:59;;;;;;;15.48;7.90;;;;;;;32.34;45.40;100523.09;4245044;28;21971;-74
2023/08/19 09:07:31;;;;;;;14.98;8.52;;;;;;;32.49;44.11;100510.94;4210684;28;21170;-75
2023/08/19 09:09:59;;;;;;;13.68;7.53;;;;;;;31.71;45.05;100505.03;4245597;28;20235;-77
2023/08/19 09:12:26;;;;;;;13.15;7.70;;;;;;;31.38;47.04;100503.75;4229498;28;21696;-78
2023/08/19 09:15:02;;;;;;;14.00;8.50;;;;;;;31.23;48.07;100502.66;4240102;28;20280;-72
2023/08/19 09:17:30;;;;;;;12.60;8.00;;;;;;;31.34;48.68;100505.44;4219851;28;20611;-78
2023/08/19 09:19:57;;;;;;;13.95;7.90;;;;;;;30.85;48.50;100501.34;4243395;28;20633;-75
2023/08/19 09:22:24;;;;;;;12.88;7.78;;;;;;;31.08;48.07;100489.53;4235837;28;20248;-74
2023/08/19 09:24:54;;;;;;;20.00;8.00;;;;;;;31.66;47.16;100499.44;4235379;28;22010;-74
2023/08/19 09:27:32;;;;;;;16.08;7.32;;;;;;;31.83;46.68;100504.69;4245366;28;20449;-75
2023/08/19 09:29:59;;;;;;;14.57;7.95;;;;;;;31.01;47.93;100494.59;4236266;28;21686;-75
2023/08/19 09:32:29;;;;;;;17.27;7.70;;;;;;;30.66;49.64;100499.97;4252260;28;20563;-73
2023/08/19 09:35:06;;;;;;;14.18;7.70;;;;;;;30.95;49.42;100501.31;4251786;28;20267;-75
2023/08/19 09:37:35;;;;;;;15.43;8.25;;;;;;;31.39;47.37;100508.19;4229278;28;20703;-74
2023/08/19 09:40:15;;;;;;;10.95;7.65;;;;;;;31.48;47.45;100505.66;4241266;28;20554;-77
2023/08/19 09:42:46;;;;;;;15.55;8.60;;;;;;;31.23;48.00;100501.84;4241999;28;20446;-75
2023/08/19 09:45:21;;;;;;;13.20;7.55;;;;;;;32.03;46.69;100512.09;4229567;28;21644;-75
2023/08/19 09:47:51;;;;;;;12.90;7.55;;;;;;;31.69;47.69;100506.41;4249827;28;20573;-73
2023/08/19 09:50:22;;;;;;;19.48;7.53;;;;;;;32.21;46.68;100515.34;4276002;28;20239;-74
2023/08/19 09:52:56;;;;;;;17.42;8.65;;;;;;;31.87;47.38;100507.72;4243261;28;21288;-74
2023/08/19 09:55:28;;;;;;;16.23;8.20;;;;;;;31.64;47.68;100510.06;4232331;28;21773;-79
2023/08/19 09:57:56;;;;;;;16.55;8.27;;;;;;;32.07;46.62;100509.53;4266087;28;20614;-76
2023/08/19 10:00:23;;;;;;;17.05;8.45;;;;;;;32.72;44.98;100508.50;4254789;28;21103;-76
2023/08/19 10:02:50;;;;;;;16.08;8.07;;;;;;;32.62;44.80;100511.38;4252783;28;20590;-74
2023/08/19 10:05:17;;;;;;;19.48;9.63;;;;;;;32.54;45.06;100505.28;4238719;28;20231;-75
2023/08/19 10:07:49;;;;;;;18.30;9.85;;;;;;;32.58;44.79;100510.31;4251485;28;21193;-77
2023/08/19 10:10:17;;;;;;;17.13;8.30;;;;;;;31.81;46.77;100504.13;4243967;28;20708;-76
2023/08/19 10:12:44;;;;;;;18.58;9.00;;;;;;;31.73;47.00;100501.91;4230187;28;20554;-77
2023/08/19 10:15:13;;;;;;;10.65;7.68;;;;;;;32.33;45.88;100512.19;4242666;28;20306;-74
2023/08/19 10:17:48;;;;;;;14.32;8.65;;;;;;;32.03;46.26;100500.06;4243361;28;20324;-75
2023/08/19 10:20:17;;;;;;;16.48;8.63;;;;;;;31.57;47.69;100507.56;4246804;28;20246;-76
2023/08/19 10:22:48;;;;;;;16.23;9.02;;;;;;;31.79;48.25;100506.38;4248550;28;22219;-76
2023/08/19 10:25:17;;;;;;;12.50;8.63;;;;;;;32.00;46.89;100503.44;4233508;28;20722;-78
2023/08/19 10:27:44;;;;;;;17.20;8.20;;;;;;;31.92;46.93;100488.09;4212057;28;24955;-75
2023/08/19 10:30:22;;;;;;;16.73;9.13;;;;;;;31.91;48.04;100504.03;4266167;28;23521;-78
2023/08/19 10:32:49;;;;;;;15.95;8.27;;;;;;;31.43;47.83;100498.94;4259278;28;20594;-79
2023/08/19 10:35:17;;;;;;;10.70;7.60;;;;;;;31.78;47.31;100510.28;4273973;28;20239;-81
2023/08/19 10:37:48;;;;;;;14.70;8.13;;;;;;;31.75;47.32;100505.28;4274855;28;21578;-79
2023/08/19 10:40:23;;;;;;;14.23;7.47;;;;;;;31.87;47.09;100507.72;4240674;28;20250;-78
2023/08/19 10:42:59;;;;;;;12.10;6.78;;;;;;;32.02;46.44;100510.44;4233778;28;20246;-80
2023/08/19 10:45:31;;;;;;;19.00;8.18;;;;;;;31.89;47.69;100508.25;4219686;28;20475;-81
2023/08/19 10:47:58;;;;;;;13.55;7.93;;;;;;;32.07;46.67;100513.19;4226693;28;21516;-77
2023/08/19 10:50:25;;;;;;;19.10;8.00;;;;;;;32.51;45.31;100500.28;4251503;28;20244;-79
2023/08/19 10:53:19;;;;;;;15.90;7.85;;;;;;;32.31;46.03;100509.69;4222058;28;20608;-76
2023/08/19 10:55:55;;;;;;;18.42;8.57;;;;;;;32.14;47.81;100510.03;4255951;28;20288;-76
2023/08/19 10:58:22;;;;;;;12.38;7.72;;;;;;;31.49;48.72;100507.34;4223524;28;20436;-74
2023/08/19 11:00:49;;;;;;;13.70;7.85;;;;;;;31.83;46.59;100507.47;4239702;28;20346;-71
2023/08/19 11:03:16;;;;;;;10.68;7.60;;;;;;;32.18;46.35;100504.69;4236793;28;20262;-71
2023/08/19 11:07:50;;;;;;;13.20;8.13;;;;;;;31.88;47.70;100500.97;4299632;27;20573;-76
2023/08/19 11:10:17;;;;;;;17.65;8.30;;;;;;;31.75;49.13;100502.47;4231410;28;20233;-75
2023/08/19 11:12:48;;;;;;;18.23;8.07;;;;;;;32.21;46.50;100492.94;4243933;28;20357;-73
2023/08/19 11:15:25;;;;;;;14.65;7.32;;;;;;;32.20;47.59;100499.66;4230254;28;20242;-73
2023/08/19 11:17:51;;;;;;;25.58;8.77;;;;;;;32.22;46.25;100495.47;4220511;28;20285;-75
2023/08/19 11:20:19;;;;;;;12.25;7.65;;;;;;;32.20;46.36;100497.69;4260728;28;20329;-72